Terminal Aerodrome Forecast
Issued by NWS Wilmington, OH

Current Version | Previous Version | Graphics & Text | Print | Product List | Glossary On
Versions: 1 2 3 4 5 6 7 8 9 10 11 12 13
846
FTUS41 KILN 221128
TAFCMH
TAF
KCMH 221128Z 2212/2312 30004KT P6SM SCT100
     FM221400 33007KT P6SM BKN100
     FM221700 35011KT P6SM BKN050
     FM230000 01006KT P6SM FEW060
     FM230500 VRB03KT P6SM SKC=

USA.gov is the U.S. government's official web portal to all federal, state and local government web resources and services.